createdAt,value
2023-03-18T00:00:14.576Z,95.80
2023-03-18T00:02:55.161Z,96.90
2023-03-18T00:05:26.740Z,97.10
2023-03-18T00:08:08.824Z,95.90
2023-03-18T00:10:49.220Z,97.20
2023-03-18T00:13:19.980Z,97.20
2023-03-18T00:16:01.166Z,96.70
2023-03-18T00:18:33.776Z,97.00
2023-03-18T00:21:03.226Z,97.20
2023-03-18T00:23:32.888Z,97.20
2023-03-18T00:28:59.289Z,97.10
2023-03-18T00:31:50.230Z,97.20
2023-03-18T00:34:25.386Z,97.00
2023-03-18T00:36:59.965Z,96.70
2023-03-18T00:39:30.238Z,96.40
2023-03-18T00:42:01.326Z,96.30
2023-03-18T00:44:38.581Z,95.70
2023-03-18T00:47:15.795Z,95.20
2023-03-18T00:52:34.925Z,94.50
2023-03-18T00:55:13.282Z,94.20
2023-03-18T00:57:46.230Z,93.80
2023-03-18T01:00:28.026Z,94.10
2023-03-18T01:03:00.932Z,93.50
2023-03-18T01:05:33.333Z,93.50
2023-03-18T01:08:04.076Z,93.40
2023-03-18T01:10:35.477Z,93.30
2023-03-18T01:13:05.716Z,93.60
2023-03-18T01:15:46.218Z,93.50
2023-03-18T01:18:15.649Z,93.40
2023-03-18T01:23:29.024Z,93.10
2023-03-18T01:28:49.443Z,93.40
2023-03-18T01:31:34.988Z,93.00
2023-03-18T01:34:05.130Z,92.90
2023-03-18T01:36:40.520Z,92.80
2023-03-18T01:39:11.219Z,92.80
2023-03-18T01:41:41.333Z,92.60
2023-03-18T01:44:26.330Z,92.50
2023-03-18T01:49:46.603Z,92.30
2023-03-18T01:52:24.415Z,92.20
2023-03-18T01:55:15.217Z,91.90
2023-03-18T01:57:49.505Z,92.10
2023-03-18T02:00:52.769Z,92.00
2023-03-18T02:03:23.331Z,91.80
2023-03-18T02:05:52.580Z,91.60
2023-03-18T02:08:22.644Z,91.70
2023-03-18T02:10:52.810Z,91.70
2023-03-18T02:13:24.314Z,91.70
2023-03-18T02:16:02.577Z,91.30
2023-03-18T02:21:35.467Z,91.20
2023-03-18T02:24:50.003Z,91.10
2023-03-18T02:27:25.682Z,90.90
2023-03-18T02:30:04.020Z,90.80
2023-03-18T02:32:35.576Z,90.60
2023-03-18T02:35:13.549Z,90.50
2023-03-18T02:37:49.949Z,90.80
2023-03-18T02:43:39.446Z,90.50
2023-03-18T02:49:28.723Z,90.20
2023-03-18T02:52:01.054Z,90.20
2023-03-18T02:54:32.090Z,90.20
2023-03-18T02:57:15.741Z,89.80
2023-03-18T02:59:53.444Z,89.90
2023-03-18T03:05:12.684Z,89.90
2023-03-18T03:10:25.921Z,89.00
2023-03-18T03:12:54.962Z,89.10
2023-03-18T03:15:36.803Z,88.60
2023-03-18T03:18:16.651Z,87.90
2023-03-18T03:21:06.274Z,88.60
2023-03-18T03:23:35.216Z,87.90
2023-03-18T03:26:05.697Z,88.30
2023-03-18T03:28:35.746Z,86.40
2023-03-18T03:31:15.855Z,87.80
2023-03-18T03:36:40.495Z,87.70
2023-03-18T03:47:18.667Z,85.90
2023-03-18T03:49:47.353Z,85.90
2023-03-18T03:52:20.504Z,86.40
2023-03-18T03:54:55.923Z,86.80
2023-03-18T03:57:30.806Z,86.60
2023-03-18T04:00:12.674Z,86.50
2023-03-18T04:05:30.107Z,86.00
2023-03-18T04:08:20.493Z,86.30
2023-03-18T04:13:42.765Z,85.10
2023-03-18T04:18:56.245Z,86.10
2023-03-18T04:21:30.694Z,85.80
2023-03-18T04:24:03.473Z,86.10
2023-03-18T04:32:00.680Z,85.00
2023-03-18T04:37:11.723Z,84.00
2023-03-18T04:39:53.382Z,85.90
2023-03-18T04:45:13.327Z,84.90
2023-03-18T04:47:44.465Z,84.40
2023-03-18T04:50:14.575Z,83.60
2023-03-18T04:52:44.663Z,82.40
2023-03-18T04:55:16.219Z,83.10
2023-03-18T04:57:45.486Z,82.90
2023-03-18T05:00:18.103Z,78.80
2023-03-18T05:02:46.399Z,81.10
2023-03-18T05:05:15.318Z,80.90
2023-03-18T05:07:47.648Z,82.80
2023-03-18T05:10:30.351Z,82.60
2023-03-18T05:15:55.345Z,76.80
2023-03-18T05:18:27.005Z,76.50
2023-03-18T05:20:56.084Z,81.20
2023-03-18T05:26:08.983Z,81.80
2023-03-18T05:28:37.745Z,78.40
2023-03-18T05:31:07.086Z,77.20
2023-03-18T05:33:35.735Z,79.70
2023-03-18T05:36:04.514Z,76.60
2023-03-18T05:38:33.247Z,78.40
2023-03-18T05:41:03.063Z,78.60
2023-03-18T05:46:20.537Z,80.00
2023-03-18T05:48:58.453Z,78.40
2023-03-18T05:51:32.990Z,79.40
2023-03-18T05:54:12.838Z,78.70
2023-03-18T05:56:56.090Z,77.80
2023-03-18T05:59:36.650Z,78.80
2023-03-18T06:02:08.591Z,78.30
2023-03-18T06:04:46.418Z,77.80
2023-03-18T06:07:22.044Z,79.90
2023-03-18T06:09:54.881Z,78.10
2023-03-18T06:12:41.134Z,76.10
2023-03-18T06:15:42.136Z,76.10
2023-03-18T06:18:11.015Z,78.50
2023-03-18T06:20:39.749Z,78.50
2023-03-18T06:23:08.625Z,74.00
2023-03-18T06:25:37.446Z,75.90
2023-03-18T06:28:06.079Z,75.40
2023-03-18T06:30:35.307Z,75.00
2023-03-18T06:33:18.150Z,77.20
2023-03-18T06:35:50.519Z,73.70
2023-03-18T06:38:37.571Z,77.90
2023-03-18T06:41:12.338Z,74.30
2023-03-18T06:43:53.083Z,71.70
2023-03-18T06:46:24.142Z,76.70
2023-03-18T06:48:53.143Z,71.50
2023-03-18T06:51:21.779Z,68.20
2023-03-18T06:54:00.702Z,70.90
2023-03-18T06:56:46.876Z,69.70
2023-03-18T06:59:17.110Z,70.30
2023-03-18T07:04:32.525Z,71.90
2023-03-18T07:10:18.985Z,73.40
2023-03-18T07:21:09.234Z,69.40
2023-03-18T07:23:39.959Z,69.80
2023-03-18T07:26:09.887Z,72.30
2023-03-18T07:28:38.428Z,72.00
2023-03-18T07:31:07.369Z,67.30
2023-03-18T07:33:36.007Z,71.90
2023-03-18T07:36:05.366Z,71.50
2023-03-18T08:03:18.972Z,70.30
2023-03-18T08:08:58.293Z,70.50
2023-03-18T08:11:47.057Z,64.90
2023-03-18T08:14:15.648Z,65.00
2023-03-18T08:16:44.273Z,63.60
2023-03-18T08:19:13.371Z,65.30
2023-03-18T08:21:42.028Z,65.70
2023-03-18T08:24:10.782Z,68.70
2023-03-18T08:26:39.362Z,67.40
2023-03-18T08:34:52.717Z,68.00
2023-03-18T08:37:26.673Z,68.90
2023-03-18T08:39:57.803Z,67.30
2023-03-18T08:48:05.190Z,66.40
2023-03-18T08:53:32.278Z,65.90
2023-03-18T08:56:08.814Z,63.30
2023-03-18T09:01:37.381Z,62.60
2023-03-18T09:07:03.154Z,62.30
2023-03-18T09:09:44.046Z,62.60
2023-03-18T09:20:37.403Z,61.90
2023-03-18T09:23:19.467Z,64.50
2023-03-18T09:26:01.339Z,64.60
2023-03-18T09:28:30.684Z,63.60
2023-03-18T09:30:59.835Z,66.30
2023-03-18T09:33:28.491Z,67.20
2023-03-18T09:35:57.240Z,66.50
2023-03-18T09:41:47.109Z,65.60
2023-03-18T09:44:29.296Z,66.40
2023-03-18T09:47:16.260Z,66.00
2023-03-18T09:50:01.442Z,65.90
2023-03-18T09:56:00.045Z,65.70
2023-03-18T09:58:41.324Z,65.90
2023-03-18T10:01:14.166Z,68.40
2023-03-18T10:03:51.982Z,66.60
2023-03-18T10:06:23.161Z,65.40
2023-03-18T10:09:03.755Z,66.70
2023-03-18T10:11:35.607Z,65.70
2023-03-18T10:14:24.277Z,64.70
2023-03-18T10:17:11.724Z,66.50
2023-03-18T10:19:48.772Z,66.10
2023-03-18T10:22:44.935Z,65.70
2023-03-18T10:25:25.478Z,66.80
2023-03-18T10:28:07.817Z,68.20
2023-03-18T10:34:28.290Z,67.60
2023-03-18T10:37:34.024Z,67.60
2023-03-18T10:40:03.750Z,68.00
2023-03-18T10:42:36.594Z,68.30
2023-03-18T10:48:18.881Z,68.30
2023-03-18T10:51:08.623Z,68.40
2023-03-18T10:54:11.547Z,68.70
2023-03-18T10:56:40.926Z,68.90
2023-03-18T10:59:19.448Z,69.50
2023-03-18T11:01:52.851Z,69.60
2023-03-18T11:04:24.671Z,69.60
2023-03-18T11:07:04.205Z,70.30
2023-03-18T11:09:37.337Z,70.20
2023-03-18T11:12:16.742Z,70.70
2023-03-18T11:14:56.516Z,70.90
2023-03-18T11:20:46.506Z,71.80
2023-03-18T11:24:01.571Z,72.50
2023-03-18T11:32:15.045Z,74.10
2023-03-18T11:35:02.293Z,74.20
2023-03-18T11:37:47.686Z,74.60
2023-03-18T11:43:26.472Z,74.20
2023-03-18T11:48:50.865Z,75.80
2023-03-18T11:51:45.138Z,76.50
2023-03-18T11:54:42.212Z,76.90
2023-03-18T11:57:20.626Z,76.70
2023-03-18T12:00:15.637Z,76.70
2023-03-18T12:05:45.907Z,76.50
2023-03-18T12:08:34.824Z,76.30
2023-03-18T12:11:12.398Z,76.40
2023-03-18T12:14:01.747Z,76.80
2023-03-18T12:16:50.989Z,76.70
2023-03-18T12:19:57.821Z,76.70
2023-03-18T12:25:49.196Z,77.30
2023-03-18T12:28:38.538Z,77.40
2023-03-18T12:31:50.376Z,78.30
2023-03-18T12:34:51.525Z,78.10
2023-03-18T12:38:02.101Z,78.20
2023-03-18T12:40:57.664Z,78.20
2023-03-18T12:43:40.270Z,77.80
2023-03-18T12:46:46.633Z,77.60
2023-03-18T12:52:48.214Z,78.00
2023-03-18T12:55:27.857Z,78.30
2023-03-18T12:58:04.805Z,78.50
2023-03-18T13:00:40.911Z,78.30
2023-03-18T13:03:30.541Z,78.20
2023-03-18T13:06:07.166Z,77.50
2023-03-18T13:09:16.401Z,77.10
2023-03-18T13:12:09.121Z,76.80
2023-03-18T13:17:47.884Z,76.90
2023-03-18T13:20:36.368Z,76.70
2023-03-18T13:29:48.117Z,76.90
2023-03-18T13:32:58.618Z,77.10
2023-03-18T13:36:21.402Z,77.50
2023-03-18T13:39:35.804Z,78.30
2023-03-18T13:45:13.971Z,78.10
2023-03-18T13:47:48.393Z,78.10
2023-03-18T13:50:30.077Z,78.30
2023-03-18T13:53:11.751Z,78.00
2023-03-18T13:55:50.381Z,78.10
2023-03-18T13:58:41.941Z,78.00
2023-03-18T14:01:34.359Z,78.10
2023-03-18T14:04:34.025Z,78.60
2023-03-18T14:15:57.697Z,78.90
2023-03-18T14:18:29.542Z,79.00
2023-03-18T14:21:02.763Z,79.70
2023-03-18T14:26:45.302Z,80.30
2023-03-18T14:29:16.827Z,80.60
2023-03-18T14:32:00.140Z,80.10
2023-03-18T14:45:55.455Z,82.30
2023-03-18T14:51:32.960Z,81.70
2023-03-18T14:54:13.474Z,81.50
2023-03-18T15:16:34.303Z,82.40
2023-03-18T15:21:52.786Z,83.20
2023-03-18T15:24:32.954Z,83.30
2023-03-18T15:27:14.292Z,83.50
2023-03-18T15:29:54.093Z,83.00
2023-03-18T15:32:27.367Z,83.10
2023-03-18T15:34:59.809Z,82.40
2023-03-18T15:40:38.335Z,81.90
2023-03-18T15:43:26.209Z,81.90
2023-03-18T15:46:09.244Z,81.90
2023-03-18T15:57:35.580Z,81.30
2023-03-18T16:05:56.439Z,82.80
2023-03-18T16:08:53.075Z,83.30
2023-03-18T16:11:30.839Z,83.50
2023-03-18T16:14:17.197Z,83.70
2023-03-18T16:27:52.349Z,84.60
2023-03-18T16:30:24.324Z,84.60
2023-03-18T16:32:53.580Z,84.60
2023-03-18T16:35:26.286Z,85.60
2023-03-18T16:37:54.587Z,84.40
2023-03-18T16:40:25.447Z,82.80
2023-03-18T16:42:54.558Z,84.50
2023-03-18T16:45:30.697Z,84.10
2023-03-18T16:48:05.757Z,83.90
2023-03-18T16:50:38.348Z,83.80
2023-03-18T16:53:28.057Z,83.60
2023-03-18T16:56:15.973Z,84.00
2023-03-18T16:58:58.198Z,84.90
2023-03-18T17:04:26.961Z,84.20
2023-03-18T17:06:56.872Z,84.30
2023-03-18T17:09:27.142Z,84.00
2023-03-18T17:12:00.090Z,84.40
2023-03-18T17:14:48.281Z,85.80
2023-03-18T17:23:23.401Z,85.70
2023-03-18T17:28:53.412Z,87.10
2023-03-18T17:37:12.247Z,87.00
2023-03-18T17:39:46.650Z,87.60
2023-03-18T17:45:34.884Z,87.80
2023-03-18T18:02:30.678Z,88.70
2023-03-18T18:04:59.282Z,88.80
2023-03-18T18:07:27.764Z,88.70
2023-03-18T18:09:57.887Z,88.80
2023-03-18T18:12:26.551Z,88.90
2023-03-18T18:14:55.061Z,88.90
2023-03-18T18:17:23.624Z,88.90
2023-03-18T18:19:52.255Z,89.60
2023-03-18T18:22:24.873Z,88.70
2023-03-18T18:24:55.198Z,88.10
2023-03-18T18:27:44.685Z,88.20
2023-03-18T18:30:23.128Z,88.00
2023-03-18T18:36:10.702Z,86.90
2023-03-18T18:38:41.148Z,86.50
2023-03-18T18:43:53.577Z,87.40
2023-03-18T18:46:22.767Z,87.50
2023-03-18T18:48:52.710Z,87.60
2023-03-18T18:51:23.995Z,87.90
2023-03-18T18:53:55.031Z,87.90
2023-03-18T18:56:35.136Z,88.20
2023-03-18T18:59:07.862Z,88.70
2023-03-18T19:01:36.111Z,88.70
2023-03-18T19:04:04.770Z,89.10
2023-03-18T19:06:34.984Z,88.80
2023-03-18T19:09:12.277Z,88.70
2023-03-18T19:11:47.585Z,88.20
2023-03-18T19:17:31.512Z,87.70
2023-03-18T19:20:34.593Z,87.50
2023-03-18T19:23:07.036Z,86.90
2023-03-18T19:29:03.454Z,86.90
2023-03-18T19:34:26.027Z,86.90
2023-03-18T19:45:27.055Z,85.70
2023-03-18T19:47:55.653Z,85.20
2023-03-18T19:50:24.362Z,84.40
2023-03-18T19:52:54.106Z,84.30
2023-03-18T19:55:24.297Z,84.00
2023-03-18T19:57:54.494Z,83.60
2023-03-18T20:03:29.095Z,82.90
2023-03-18T20:06:20.159Z,83.00
2023-03-18T20:08:55.879Z,83.40
2023-03-18T20:11:34.210Z,83.40
2023-03-18T20:14:08.893Z,83.60
2023-03-18T20:22:15.897Z,83.90
2023-03-18T20:30:25.283Z,84.30
2023-03-18T20:38:48.183Z,84.70
2023-03-18T20:41:23.493Z,84.70
2023-03-18T20:43:59.397Z,85.30
2023-03-18T20:46:35.894Z,85.00
2023-03-18T20:51:57.850Z,85.10
2023-03-18T20:54:33.194Z,85.90
2023-03-18T20:59:44.826Z,85.40
2023-03-18T21:02:34.207Z,85.80
2023-03-18T21:05:04.078Z,85.90
2023-03-18T21:07:32.737Z,85.90
2023-03-18T21:10:01.766Z,85.70
2023-03-18T21:12:33.157Z,86.70
2023-03-18T21:15:16.141Z,86.10
2023-03-18T21:17:50.461Z,85.60
2023-03-18T21:23:38.808Z,85.90
2023-03-18T21:26:20.522Z,86.50
2023-03-18T21:28:51.733Z,87.00
2023-03-18T21:39:54.076Z,87.30
2023-03-18T21:50:51.690Z,88.70
2023-03-18T21:53:30.257Z,89.10
2023-03-18T22:07:11.527Z,90.10
2023-03-18T22:09:49.867Z,90.20
2023-03-18T22:12:25.318Z,90.10
2023-03-18T22:14:55.254Z,90.40
2023-03-18T22:17:26.784Z,90.50
2023-03-18T22:19:56.885Z,90.70
2023-03-18T22:22:30.540Z,90.80
2023-03-18T22:24:59.209Z,91.00
2023-03-18T22:33:14.460Z,90.60
2023-03-18T22:38:44.599Z,90.50
2023-03-18T22:41:24.235Z,90.80
2023-03-18T22:43:55.636Z,90.90
2023-03-18T22:46:27.131Z,90.60
2023-03-18T22:48:57.889Z,90.70
2023-03-18T22:51:48.996Z,90.80
2023-03-18T22:54:26.055Z,90.30
2023-03-18T22:59:41.914Z,90.40
2023-03-18T23:05:04.992Z,90.50
2023-03-18T23:10:27.269Z,90.50
2023-03-18T23:12:58.549Z,90.60
2023-03-18T23:15:27.160Z,91.00
2023-03-18T23:17:55.793Z,91.10
2023-03-18T23:20:24.463Z,90.90
2023-03-18T23:28:20.175Z,91.90
2023-03-18T23:30:51.369Z,92.00
2023-03-18T23:33:20.778Z,92.20
2023-03-18T23:35:49.783Z,92.30
2023-03-18T23:41:16.223Z,92.60
2023-03-18T23:46:33.184Z,92.80
2023-03-18T23:54:33.053Z,93.00
